createdAt,value
2018-03-29T00:00:17.978Z,5.40
2018-03-29T00:01:18.128Z,5.41
2018-03-29T00:02:18.277Z,5.43
2018-03-29T00:03:18.424Z,5.41
2018-03-29T00:04:18.573Z,5.45
2018-03-29T00:05:18.718Z,5.41
2018-03-29T00:06:18.864Z,5.45
2018-03-29T00:07:19.011Z,5.41
2018-03-29T00:08:19.162Z,5.45
2018-03-29T00:09:19.362Z,5.43
2018-03-29T00:10:19.452Z,5.49
2018-03-29T00:11:19.600Z,5.41
2018-03-29T00:12:19.745Z,5.50
2018-03-29T00:13:19.892Z,5.52
2018-03-29T00:14:20.036Z,5.48
2018-03-29T00:15:20.181Z,5.46
2018-03-29T00:16:20.329Z,5.52
2018-03-29T00:17:20.476Z,5.52
2018-03-29T00:18:20.622Z,5.50
2018-03-29T00:19:22.604Z,5.56
2018-03-29T00:20:20.888Z,5.52
2018-03-29T00:21:21.035Z,5.41
2018-03-29T00:22:21.183Z,5.52
2018-03-29T00:23:21.332Z,5.57
2018-03-29T00:24:21.477Z,5.40
2018-03-29T00:25:21.659Z,5.45
2018-03-29T00:26:21.773Z,5.49
2018-03-29T00:27:21.921Z,5.46
2018-03-29T00:28:22.066Z,5.43
2018-03-29T00:29:22.215Z,5.49
2018-03-29T00:30:22.358Z,5.49
2018-03-29T00:31:22.504Z,5.46
2018-03-29T00:32:22.652Z,5.41
2018-03-29T00:33:22.799Z,5.40
2018-03-29T00:34:22.946Z,5.37
2018-03-29T00:35:23.090Z,5.37
2018-03-29T00:36:23.240Z,5.34
2018-03-29T00:37:23.385Z,5.43
2018-03-29T00:38:23.537Z,5.45
2018-03-29T00:39:23.680Z,5.40
2018-03-29T00:40:23.826Z,5.35
2018-03-29T00:41:23.973Z,5.35
2018-03-29T00:42:24.129Z,5.35
2018-03-29T00:43:24.268Z,5.30
2018-03-29T00:44:24.413Z,5.35
2018-03-29T00:45:24.560Z,5.34
2018-03-29T00:46:24.711Z,5.37
2018-03-29T00:47:24.860Z,5.45
2018-03-29T00:48:25.006Z,5.32
2018-03-29T00:49:25.158Z,5.35
2018-03-29T00:50:25.299Z,5.22
2018-03-29T00:51:25.446Z,5.35
2018-03-29T00:52:25.593Z,5.30
2018-03-29T00:53:25.736Z,5.27
2018-03-29T00:54:25.883Z,5.20
2018-03-29T00:55:26.031Z,5.28
2018-03-29T00:56:26.177Z,5.17
2018-03-29T00:57:26.324Z,5.28
2018-03-29T00:58:26.467Z,5.28
2018-03-29T00:59:26.618Z,5.28
2018-03-29T01:00:26.765Z,5.37
2018-03-29T01:01:26.910Z,5.31
2018-03-29T01:02:27.055Z,5.17
2018-03-29T01:03:27.204Z,5.22
2018-03-29T01:04:27.356Z,5.17
2018-03-29T01:05:27.499Z,5.25
2018-03-29T01:06:27.651Z,5.30
2018-03-29T01:07:27.795Z,5.22
2018-03-29T01:08:27.942Z,5.28
2018-03-29T01:09:28.081Z,5.20
2018-03-29T01:10:28.227Z,5.28
2018-03-29T01:11:28.374Z,5.22
2018-03-29T01:12:28.520Z,5.31
2018-03-29T01:13:28.665Z,5.17
2018-03-29T01:14:28.812Z,5.13
2018-03-29T01:15:28.961Z,5.12
2018-03-29T01:16:29.106Z,5.09
2018-03-29T01:17:29.254Z,5.13
2018-03-29T01:18:29.401Z,5.09
2018-03-29T01:19:29.550Z,5.09
2018-03-29T01:20:29.694Z,4.99
2018-03-29T01:21:29.844Z,4.98
2018-03-29T01:22:29.992Z,4.92
2018-03-29T01:23:30.141Z,4.88
2018-03-29T01:24:30.287Z,4.89
2018-03-29T01:25:30.434Z,4.83
2018-03-29T01:26:30.580Z,4.89
2018-03-29T01:27:30.733Z,4.77
2018-03-29T01:28:30.871Z,4.79
2018-03-29T01:29:31.025Z,4.84
2018-03-29T01:30:31.166Z,4.86
2018-03-29T01:31:31.316Z,4.88
2018-03-29T01:32:31.463Z,4.84
2018-03-29T01:33:31.604Z,4.83
2018-03-29T01:34:31.751Z,4.79
2018-03-29T01:35:31.901Z,4.91
2018-03-29T01:36:32.048Z,4.89
2018-03-29T01:37:32.192Z,4.83
2018-03-29T01:38:32.340Z,4.86
2018-03-29T01:39:32.488Z,4.80
2018-03-29T01:40:32.635Z,4.79
2018-03-29T01:41:32.782Z,4.86
2018-03-29T01:42:32.927Z,4.64
2018-03-29T01:43:33.074Z,4.73
2018-03-29T01:44:33.221Z,4.62
2018-03-29T01:45:33.370Z,4.67
2018-03-29T01:46:33.516Z,4.52
2018-03-29T01:47:33.663Z,4.55
2018-03-29T01:48:33.812Z,4.58
2018-03-29T01:49:33.957Z,4.39
2018-03-29T01:50:34.103Z,4.40
2018-03-29T01:51:34.247Z,4.37
2018-03-29T01:52:34.393Z,4.39
2018-03-29T01:53:34.539Z,4.46
2018-03-29T01:54:34.690Z,4.42
2018-03-29T01:55:34.835Z,4.51
2018-03-29T01:56:34.983Z,4.39
2018-03-29T01:57:35.129Z,4.40
2018-03-29T01:58:35.276Z,4.40
2018-03-29T01:59:35.423Z,4.37
2018-03-29T02:00:35.571Z,4.39
2018-03-29T02:01:35.716Z,4.26
2018-03-29T02:02:35.863Z,4.28
2018-03-29T02:03:36.012Z,4.18
2018-03-29T02:04:36.153Z,4.25
2018-03-29T02:05:36.299Z,4.26
2018-03-29T02:06:36.446Z,4.25
2018-03-29T02:07:36.643Z,4.25
2018-03-29T02:08:36.744Z,4.25
2018-03-29T02:09:36.888Z,4.19
2018-03-29T02:10:37.028Z,4.22
2018-03-29T02:11:37.172Z,4.24
2018-03-29T02:12:37.319Z,4.34
2018-03-29T02:13:37.471Z,4.34
2018-03-29T02:14:37.613Z,4.25
2018-03-29T02:15:37.759Z,4.24
2018-03-29T02:16:37.909Z,4.37
2018-03-29T02:17:38.052Z,4.24
2018-03-29T02:18:38.198Z,4.32
2018-03-29T02:19:38.342Z,4.34
2018-03-29T02:20:38.489Z,4.26
2018-03-29T02:21:38.635Z,4.34
2018-03-29T02:22:38.785Z,4.33
2018-03-29T02:23:38.931Z,4.42
2018-03-29T02:24:39.073Z,4.36
2018-03-29T02:25:39.221Z,4.36
2018-03-29T02:26:39.369Z,4.40
2018-03-29T02:27:39.511Z,4.43
2018-03-29T02:28:39.658Z,4.42
2018-03-29T02:29:39.807Z,4.33
2018-03-29T02:30:39.951Z,4.34
2018-03-29T02:31:40.101Z,4.28
2018-03-29T02:32:40.249Z,4.36
2018-03-29T02:33:40.395Z,4.32
2018-03-29T02:34:40.541Z,4.32
2018-03-29T02:35:40.684Z,4.26
2018-03-29T02:36:40.834Z,4.28
2018-03-29T02:37:40.979Z,4.26
2018-03-29T02:38:41.127Z,4.28
2018-03-29T02:39:41.274Z,4.18
2018-03-29T02:40:41.421Z,4.21
2018-03-29T02:41:41.570Z,4.18
2018-03-29T02:42:41.713Z,4.08
2018-03-29T02:43:41.855Z,4.12
2018-03-29T02:44:42.004Z,4.12
2018-03-29T02:45:42.154Z,4.16
2018-03-29T02:46:42.296Z,4.10
2018-03-29T02:47:42.442Z,4.04
2018-03-29T02:48:42.587Z,4.18
2018-03-29T02:49:42.733Z,4.19
2018-03-29T02:50:42.882Z,3.98
2018-03-29T02:51:43.049Z,4.15
2018-03-29T02:52:43.178Z,4.00
2018-03-29T02:53:43.328Z,4.08
2018-03-29T02:54:43.475Z,3.96
2018-03-29T02:55:43.625Z,4.03
2018-03-29T02:56:43.767Z,4.04
2018-03-29T02:57:43.911Z,3.92
2018-03-29T02:58:44.058Z,4.00
2018-03-29T02:59:44.206Z,3.89
2018-03-29T03:00:44.348Z,4.00
2018-03-29T03:01:44.495Z,3.89
2018-03-29T03:02:44.640Z,3.98
2018-03-29T03:03:44.787Z,3.92
2018-03-29T03:04:44.933Z,3.97
2018-03-29T03:05:45.082Z,3.82
2018-03-29T03:06:45.229Z,3.89
2018-03-29T03:07:45.377Z,3.94
2018-03-29T03:08:45.517Z,3.89
2018-03-29T03:09:45.664Z,3.89
2018-03-29T03:10:45.819Z,3.90
2018-03-29T03:11:45.962Z,3.76
2018-03-29T03:12:46.106Z,3.89
2018-03-29T03:13:46.255Z,3.89
2018-03-29T03:14:46.397Z,3.85
2018-03-29T03:15:46.544Z,3.90
2018-03-29T03:16:46.693Z,3.88
2018-03-29T03:17:46.833Z,3.85
2018-03-29T03:18:46.981Z,3.88
2018-03-29T03:19:47.130Z,3.89
2018-03-29T03:20:47.270Z,3.85
2018-03-29T03:21:47.418Z,3.96
2018-03-29T03:22:47.564Z,3.89
2018-03-29T03:23:47.712Z,3.88
2018-03-29T03:24:47.856Z,3.80
2018-03-29T03:25:48.002Z,3.94
2018-03-29T03:26:48.149Z,3.92
2018-03-29T03:27:48.299Z,3.94
2018-03-29T03:28:48.445Z,3.92
2018-03-29T03:29:48.590Z,3.92
2018-03-29T03:30:48.745Z,3.96
2018-03-29T03:31:48.884Z,3.98
2018-03-29T03:32:49.030Z,3.90
2018-03-29T03:33:49.176Z,3.97
2018-03-29T03:34:49.323Z,3.89
2018-03-29T03:35:49.474Z,3.82
2018-03-29T03:36:49.616Z,3.88
2018-03-29T03:37:49.761Z,3.76
2018-03-29T03:38:49.910Z,3.88
2018-03-29T03:39:50.057Z,3.90
2018-03-29T03:40:50.214Z,3.80
2018-03-29T03:41:50.361Z,3.85
2018-03-29T03:42:50.504Z,3.89
2018-03-29T03:43:50.647Z,3.82
2018-03-29T03:44:50.792Z,3.85
2018-03-29T03:45:50.949Z,3.83
2018-03-29T03:46:51.098Z,3.88
2018-03-29T03:47:51.244Z,3.86
2018-03-29T03:48:51.389Z,3.85
2018-03-29T03:49:51.531Z,3.92
2018-03-29T03:50:51.678Z,3.83
2018-03-29T03:51:51.832Z,3.90
2018-03-29T03:52:51.971Z,3.94
2018-03-29T03:53:52.121Z,3.82
2018-03-29T03:54:52.265Z,3.86
2018-03-29T03:55:52.410Z,3.90
2018-03-29T03:56:52.553Z,3.98
2018-03-29T03:57:52.707Z,3.94
2018-03-29T03:58:52.847Z,3.92
2018-03-29T03:59:52.996Z,4.04
2018-03-29T04:00:53.139Z,3.88
2018-03-29T04:01:53.286Z,4.04
2018-03-29T04:02:53.430Z,4.06
2018-03-29T04:03:53.571Z,3.90
2018-03-29T04:04:53.719Z,4.04
2018-03-29T04:05:53.864Z,4.04
2018-03-29T04:06:54.012Z,4.03
2018-03-29T04:07:54.158Z,4.01
2018-03-29T04:08:54.308Z,4.03
2018-03-29T04:09:54.451Z,4.03
2018-03-29T04:10:54.602Z,4.01
2018-03-29T04:11:54.744Z,4.07
2018-03-29T04:12:54.894Z,4.01
2018-03-29T04:13:55.039Z,4.10
2018-03-29T04:14:55.186Z,4.15
2018-03-29T04:15:55.332Z,4.10
2018-03-29T04:16:55.479Z,4.04
2018-03-29T04:17:55.629Z,4.01
2018-03-29T04:18:55.776Z,4.12
2018-03-29T04:19:55.965Z,4.15
2018-03-29T04:20:56.078Z,4.07
2018-03-29T04:21:56.212Z,4.06
2018-03-29T04:22:56.358Z,4.16
2018-03-29T04:23:56.506Z,4.04
2018-03-29T04:24:56.655Z,4.19
2018-03-29T04:25:56.799Z,4.04
2018-03-29T04:26:56.993Z,4.08
2018-03-29T04:27:57.093Z,4.15
2018-03-29T04:28:57.240Z,4.10
2018-03-29T04:29:57.385Z,4.12
2018-03-29T04:30:57.535Z,4.10
2018-03-29T04:31:57.683Z,4.01
2018-03-29T04:32:57.828Z,4.15
2018-03-29T04:33:57.975Z,4.16
2018-03-29T04:34:58.120Z,4.01
2018-03-29T04:35:58.274Z,4.14
2018-03-29T04:36:58.425Z,4.15
2018-03-29T04:37:58.572Z,4.16
2018-03-29T04:38:58.717Z,4.03
2018-03-29T04:39:58.864Z,4.08
2018-03-29T04:40:59.016Z,4.12
2018-03-29T04:41:59.160Z,4.08
2018-03-29T04:42:59.302Z,4.16
2018-03-29T04:43:59.447Z,4.14
2018-03-29T04:44:59.595Z,4.10
2018-03-29T04:45:59.744Z,4.03
2018-03-29T04:46:59.889Z,3.97
2018-03-29T04:48:00.035Z,4.07
2018-03-29T04:49:00.183Z,4.01
2018-03-29T04:50:00.329Z,3.94
2018-03-29T04:51:00.481Z,4.00
2018-03-29T04:52:00.625Z,3.96
2018-03-29T04:53:00.772Z,3.92
2018-03-29T04:54:00.917Z,3.97
2018-03-29T04:55:01.066Z,4.03
2018-03-29T04:56:01.212Z,3.96
2018-03-29T04:57:01.357Z,3.89
2018-03-29T04:58:01.505Z,3.97
2018-03-29T04:59:01.652Z,3.96
2018-03-29T05:00:01.799Z,3.85
2018-03-29T05:01:01.946Z,3.88
2018-03-29T05:02:02.098Z,3.92
2018-03-29T05:03:02.244Z,3.94
2018-03-29T05:04:02.387Z,3.92
2018-03-29T05:05:02.537Z,3.90
2018-03-29T05:06:02.679Z,3.82
2018-03-29T05:07:02.825Z,3.92
2018-03-29T05:08:02.971Z,3.88
2018-03-29T05:09:03.119Z,3.96
2018-03-29T05:10:03.266Z,3.92
2018-03-29T05:11:03.411Z,4.04
2018-03-29T05:12:03.556Z,3.86
2018-03-29T05:13:03.702Z,4.01
2018-03-29T05:14:03.850Z,3.86
2018-03-29T05:15:03.999Z,3.89
2018-03-29T05:16:04.146Z,3.97
2018-03-29T05:17:04.291Z,3.96
2018-03-29T05:18:04.440Z,3.98
2018-03-29T05:19:04.582Z,3.96
2018-03-29T05:20:04.728Z,3.96
2018-03-29T05:21:04.883Z,3.94
2018-03-29T05:22:05.024Z,3.98
2018-03-29T05:23:05.175Z,3.96
2018-03-29T05:24:05.326Z,3.92
2018-03-29T05:25:05.466Z,3.96
2018-03-29T05:26:05.607Z,3.96
2018-03-29T05:27:05.755Z,4.03
2018-03-29T05:28:05.902Z,4.06
2018-03-29T05:29:06.049Z,4.07
2018-03-29T05:30:06.196Z,3.92
2018-03-29T05:31:06.340Z,3.96
2018-03-29T05:32:06.486Z,4.01
2018-03-29T05:33:06.644Z,4.00
2018-03-29T05:34:06.784Z,4.00
2018-03-29T05:35:06.920Z,4.08
2018-03-29T05:36:07.066Z,4.03
2018-03-29T05:37:07.219Z,4.16
2018-03-29T05:38:07.366Z,4.18
2018-03-29T05:39:07.509Z,4.15
2018-03-29T05:40:07.675Z,4.18
2018-03-29T05:41:07.808Z,4.07
2018-03-29T05:42:07.961Z,4.15
2018-03-29T05:43:08.103Z,3.98
2018-03-29T05:44:08.248Z,4.10
2018-03-29T05:45:08.394Z,4.12
2018-03-29T05:46:08.539Z,4.12
2018-03-29T05:47:08.683Z,4.15
2018-03-29T05:48:08.831Z,4.04
2018-03-29T05:49:08.977Z,4.12
2018-03-29T05:50:09.118Z,4.14
2018-03-29T05:51:09.268Z,4.14
2018-03-29T05:52:09.417Z,4.19
2018-03-29T05:53:09.571Z,4.14
2018-03-29T05:54:09.718Z,4.10
2018-03-29T05:55:09.864Z,4.22
2018-03-29T05:56:10.012Z,4.26
2018-03-29T05:57:10.156Z,4.29
2018-03-29T05:58:10.303Z,4.25
2018-03-29T05:59:10.449Z,4.39
2018-03-29T06:00:10.596Z,4.29
2018-03-29T06:01:10.743Z,4.36
2018-03-29T06:02:10.891Z,4.33
2018-03-29T06:03:11.047Z,4.29
2018-03-29T06:04:11.183Z,4.44
2018-03-29T06:05:11.330Z,4.36
2018-03-29T06:06:11.478Z,4.44
2018-03-29T06:07:11.664Z,4.36
2018-03-29T06:08:11.774Z,4.39
2018-03-29T06:09:11.918Z,4.43
2018-03-29T06:10:12.071Z,4.32
2018-03-29T06:11:12.218Z,4.44
2018-03-29T06:12:12.361Z,4.39
2018-03-29T06:13:12.508Z,4.40
2018-03-29T06:14:12.654Z,4.40
2018-03-29T06:15:12.804Z,4.52
2018-03-29T06:16:12.953Z,4.55
2018-03-29T06:17:13.097Z,4.59
2018-03-29T06:18:13.245Z,4.57
2018-03-29T06:19:13.394Z,4.61
2018-03-29T06:20:13.537Z,4.64
2018-03-29T06:21:13.686Z,4.50
2018-03-29T06:22:13.830Z,4.52
2018-03-29T06:23:13.996Z,4.57
2018-03-29T06:24:14.125Z,4.57
2018-03-29T06:25:14.274Z,4.52
2018-03-29T06:26:14.419Z,4.65
2018-03-29T06:27:14.567Z,4.59
2018-03-29T06:28:14.714Z,4.62
2018-03-29T06:29:14.859Z,4.73
2018-03-29T06:30:15.005Z,4.73
2018-03-29T06:31:15.150Z,4.70
2018-03-29T06:32:15.298Z,4.57
2018-03-29T06:33:15.444Z,4.75
2018-03-29T06:34:15.591Z,4.79
2018-03-29T06:35:15.741Z,4.69
2018-03-29T06:36:15.889Z,4.72
2018-03-29T06:37:16.034Z,4.65
2018-03-29T06:38:16.181Z,4.59
2018-03-29T06:39:16.331Z,4.65
2018-03-29T06:40:16.477Z,4.76
2018-03-29T06:41:16.620Z,4.76
2018-03-29T06:42:16.768Z,4.73
2018-03-29T06:43:16.917Z,4.75
2018-03-29T06:44:17.062Z,4.64
2018-03-29T06:45:17.211Z,4.75
2018-03-29T06:46:17.357Z,4.76
2018-03-29T06:47:17.506Z,4.76
2018-03-29T06:48:17.656Z,4.67
2018-03-29T06:49:17.802Z,4.77
2018-03-29T06:50:17.948Z,4.77
2018-03-29T06:51:18.095Z,4.80
2018-03-29T06:52:18.244Z,4.84
2018-03-29T06:53:18.389Z,4.89
2018-03-29T06:54:18.540Z,4.88
2018-03-29T06:55:18.686Z,4.84
2018-03-29T06:56:18.833Z,4.96
2018-03-29T06:57:18.978Z,5.01
2018-03-29T06:58:19.124Z,4.99
2018-03-29T06:59:19.271Z,4.94
2018-03-29T07:00:19.418Z,5.17
2018-03-29T07:01:19.567Z,5.17
2018-03-29T07:02:19.713Z,5.09
2018-03-29T07:03:19.860Z,5.19
2018-03-29T07:04:20.007Z,5.12
2018-03-29T07:05:20.154Z,5.17
2018-03-29T07:06:20.303Z,5.13
2018-03-29T07:07:20.459Z,5.14
2018-03-29T07:08:20.599Z,5.13
2018-03-29T07:09:20.749Z,5.14
2018-03-29T07:10:20.896Z,5.28
2018-03-29T07:11:21.076Z,5.25
2018-03-29T07:12:21.223Z,5.25
2018-03-29T07:13:21.372Z,5.25
2018-03-29T07:14:21.522Z,5.34
2018-03-29T07:15:21.666Z,5.53
2018-03-29T07:16:21.815Z,5.63
2018-03-29T07:17:21.959Z,5.68
2018-03-29T07:18:22.109Z,5.78
2018-03-29T07:19:22.258Z,5.78
2018-03-29T07:20:22.405Z,5.73
2018-03-29T07:21:22.554Z,5.67
2018-03-29T07:22:22.698Z,5.60
2018-03-29T07:23:22.850Z,5.57
2018-03-29T07:24:22.992Z,5.57
2018-03-29T07:25:23.125Z,5.52
2018-03-29T07:26:23.285Z,5.53
2018-03-29T07:27:23.423Z,5.59
2018-03-29T07:28:23.569Z,5.63
2018-03-29T07:29:23.718Z,5.63
2018-03-29T07:30:23.867Z,5.64
2018-03-29T07:31:24.015Z,5.71
2018-03-29T07:32:24.165Z,5.74
2018-03-29T07:33:24.314Z,5.74
2018-03-29T07:34:24.462Z,5.75
2018-03-29T07:35:24.608Z,5.82
2018-03-29T07:36:24.765Z,5.88
2018-03-29T07:37:24.911Z,5.96
2018-03-29T07:38:25.050Z,5.88
2018-03-29T07:39:25.199Z,5.98
2018-03-29T07:40:25.345Z,6.18
2018-03-29T07:41:25.494Z,6.14
2018-03-29T07:42:25.650Z,6.16
2018-03-29T07:43:25.791Z,6.01
2018-03-29T07:44:25.942Z,6.00
2018-03-29T07:45:26.088Z,5.96
2018-03-29T07:46:26.239Z,5.85
2018-03-29T07:47:26.384Z,6.03
2018-03-29T07:48:26.529Z,6.03
2018-03-29T07:49:26.677Z,5.93
2018-03-29T07:50:26.826Z,5.92
2018-03-29T07:51:26.972Z,5.98
2018-03-29T07:52:27.126Z,6.09
2018-03-29T07:53:27.273Z,6.01
2018-03-29T07:54:27.410Z,6.16
2018-03-29T07:55:27.555Z,6.18
2018-03-29T07:56:27.700Z,6.13
2018-03-29T07:57:27.851Z,6.22
2018-03-29T07:58:28.002Z,6.07
2018-03-29T07:59:28.151Z,5.96
2018-03-29T08:00:28.315Z,5.92
2018-03-29T08:01:28.447Z,6.07
2018-03-29T08:02:28.597Z,6.03
2018-03-29T08:03:28.744Z,5.89
2018-03-29T08:04:28.894Z,6.07
2018-03-29T08:05:29.040Z,6.13
2018-03-29T08:06:29.185Z,6.18
2018-03-29T08:07:29.333Z,6.11
2018-03-29T08:08:29.482Z,6.21
2018-03-29T08:09:29.631Z,6.30
2018-03-29T08:10:29.779Z,6.03
2018-03-29T08:11:29.926Z,6.28
2018-03-29T08:12:30.076Z,6.28
2018-03-29T08:13:30.227Z,6.30
2018-03-29T08:14:30.374Z,6.41
2018-03-29T08:15:30.522Z,6.56
2018-03-29T08:16:30.673Z,6.65
2018-03-29T08:17:30.817Z,6.63
2018-03-29T08:18:30.967Z,6.80
2018-03-29T08:19:31.116Z,6.66
2018-03-29T08:20:31.267Z,6.77
2018-03-29T08:21:31.415Z,6.79
2018-03-29T08:22:31.566Z,6.87
2018-03-29T08:23:31.714Z,6.95
2018-03-29T08:24:31.865Z,7.17
2018-03-29T08:25:32.010Z,7.15
2018-03-29T08:26:32.163Z,7.37
2018-03-29T08:27:32.313Z,7.32
2018-03-29T08:28:32.459Z,7.47
2018-03-29T08:29:32.606Z,7.41
2018-03-29T08:30:32.756Z,7.40
2018-03-29T08:31:32.906Z,7.55
2018-03-29T08:32:33.056Z,7.34
2018-03-29T08:33:33.205Z,7.31
2018-03-29T08:34:33.358Z,7.17
2018-03-29T08:35:33.510Z,7.22
2018-03-29T08:36:33.658Z,7.23
2018-03-29T08:37:33.807Z,7.22
2018-03-29T08:38:33.957Z,7.07
2018-03-29T08:39:34.106Z,7.15
2018-03-29T08:40:34.254Z,7.23
2018-03-29T08:41:34.403Z,7.24
2018-03-29T08:42:34.552Z,7.27
2018-03-29T08:43:34.706Z,7.24
2018-03-29T08:44:34.854Z,7.23
2018-03-29T08:45:35.003Z,7.29
2018-03-29T08:46:35.155Z,7.34
2018-03-29T08:47:35.304Z,7.32
2018-03-29T08:48:35.454Z,7.16
2018-03-29T08:49:35.600Z,7.34
2018-03-29T08:50:35.749Z,7.40
2018-03-29T08:51:35.901Z,7.58
2018-03-29T08:52:36.050Z,7.50
2018-03-29T08:53:36.224Z,7.55
2018-03-29T08:54:36.361Z,7.56
2018-03-29T08:55:36.498Z,7.62
2018-03-29T08:56:36.648Z,7.71
2018-03-29T08:57:36.795Z,7.59
2018-03-29T08:58:36.950Z,7.53
2018-03-29T08:59:37.103Z,7.38
2018-03-29T09:00:37.254Z,7.35
2018-03-29T09:01:37.404Z,7.40
2018-03-29T09:02:37.553Z,7.53
2018-03-29T09:03:37.706Z,7.40
2018-03-29T09:04:37.856Z,7.40
2018-03-29T09:05:38.000Z,7.29
2018-03-29T09:06:38.150Z,7.52
2018-03-29T09:07:38.301Z,7.55
2018-03-29T09:08:38.452Z,7.55
2018-03-29T09:09:38.602Z,7.69
2018-03-29T09:10:38.750Z,7.67
2018-03-29T09:11:38.899Z,7.49
2018-03-29T09:12:39.049Z,7.55
2018-03-29T09:13:39.199Z,7.42
2018-03-29T09:14:39.349Z,7.55
2018-03-29T09:15:39.501Z,7.50
2018-03-29T09:16:39.650Z,7.50
2018-03-29T09:17:39.801Z,7.26
2018-03-29T09:18:39.955Z,7.32
2018-03-29T09:19:40.097Z,7.32
2018-03-29T09:20:40.250Z,7.19
2018-03-29T09:21:40.402Z,7.29
2018-03-29T09:22:40.547Z,7.37
2018-03-29T09:23:40.695Z,7.26
2018-03-29T09:24:40.846Z,7.40
2018-03-29T09:25:40.997Z,7.40
2018-03-29T09:26:41.148Z,7.44
2018-03-29T09:27:41.297Z,7.35
2018-03-29T09:28:41.448Z,7.34
2018-03-29T09:29:41.595Z,7.55
2018-03-29T09:30:41.747Z,7.53
2018-03-29T09:31:41.897Z,7.52
2018-03-29T09:32:42.049Z,7.52
2018-03-29T09:33:42.196Z,7.56
2018-03-29T09:34:42.347Z,7.55
2018-03-29T09:35:42.497Z,7.78
2018-03-29T09:36:42.653Z,7.92
2018-03-29T09:37:42.793Z,8.03
2018-03-29T09:38:42.945Z,8.18
2018-03-29T09:39:43.105Z,7.99
2018-03-29T09:40:43.250Z,8.12
2018-03-29T09:41:43.395Z,8.04
2018-03-29T09:42:43.549Z,8.18
2018-03-29T09:43:43.708Z,8.33
2018-03-29T09:44:43.851Z,8.29
2018-03-29T09:45:44.002Z,8.60
2018-03-29T09:46:44.153Z,8.60
2018-03-29T09:47:44.332Z,8.47
2018-03-29T09:48:44.453Z,8.37
2018-03-29T09:49:44.602Z,8.25
2018-03-29T09:50:44.751Z,8.50
2018-03-29T09:51:44.902Z,8.36
2018-03-29T09:52:45.052Z,8.21
2018-03-29T09:53:45.210Z,8.00
2018-03-29T09:54:45.356Z,8.02
2018-03-29T09:55:45.505Z,7.97
2018-03-29T09:56:45.656Z,8.08
2018-03-29T09:57:45.804Z,8.08
2018-03-29T09:58:45.954Z,8.18
2018-03-29T09:59:46.104Z,8.11
2018-03-29T10:00:46.249Z,7.99
2018-03-29T10:01:46.397Z,8.12
2018-03-29T10:02:46.547Z,8.18
2018-03-29T10:03:46.708Z,8.15
2018-03-29T10:04:46.838Z,8.22
2018-03-29T10:05:46.989Z,8.17
2018-03-29T10:06:47.144Z,8.12
2018-03-29T10:07:47.293Z,8.21
2018-03-29T10:08:47.443Z,8.21
2018-03-29T10:09:47.593Z,8.20
2018-03-29T10:10:47.741Z,8.14
2018-03-29T10:11:47.890Z,8.22
2018-03-29T10:12:48.044Z,8.12
2018-03-29T10:13:48.193Z,7.82
2018-03-29T10:14:48.347Z,7.84
2018-03-29T10:15:48.493Z,7.82
2018-03-29T10:16:48.644Z,7.99
2018-03-29T10:17:48.795Z,7.97
2018-03-29T10:18:48.952Z,7.93
2018-03-29T10:19:49.094Z,7.93
2018-03-29T10:20:49.245Z,7.90
2018-03-29T10:21:49.394Z,8.08
2018-03-29T10:22:49.543Z,7.92
2018-03-29T10:23:49.692Z,7.87
2018-03-29T10:24:49.843Z,7.77
2018-03-29T10:25:49.989Z,7.87
2018-03-29T10:26:50.141Z,7.89
2018-03-29T10:27:50.293Z,7.85
2018-03-29T10:28:50.441Z,7.99
2018-03-29T10:29:50.592Z,7.84
2018-03-29T10:30:50.741Z,7.85
2018-03-29T10:31:50.889Z,7.97
2018-03-29T10:32:51.041Z,8.21
2018-03-29T10:33:51.218Z,8.21
2018-03-29T10:34:51.367Z,8.17
2018-03-29T10:35:51.545Z,8.15
2018-03-29T10:36:51.666Z,8.02
2018-03-29T10:37:51.818Z,8.29
2018-03-29T10:38:51.967Z,8.21
2018-03-29T10:39:52.119Z,8.22
2018-03-29T10:40:52.268Z,8.40
2018-03-29T10:41:52.416Z,8.36
2018-03-29T10:42:52.567Z,8.45
2018-03-29T10:43:52.717Z,8.36
2018-03-29T10:44:52.867Z,8.25
2018-03-29T10:45:53.018Z,8.47
2018-03-29T10:46:53.163Z,8.36
2018-03-29T10:47:53.317Z,8.33
2018-03-29T10:48:53.466Z,8.37
2018-03-29T10:49:53.617Z,8.28
2018-03-29T10:50:53.765Z,8.22
2018-03-29T10:51:53.918Z,8.25
2018-03-29T10:52:54.070Z,8.39
2018-03-29T10:53:54.217Z,8.39
2018-03-29T10:54:54.368Z,8.45
2018-03-29T10:55:54.516Z,8.44
2018-03-29T10:56:54.672Z,8.28
2018-03-29T10:57:54.827Z,8.25
2018-03-29T10:58:54.972Z,8.32
2018-03-29T10:59:55.121Z,8.40
2018-03-29T11:00:55.275Z,8.26
2018-03-29T11:01:55.423Z,8.39
2018-03-29T11:02:55.574Z,8.25
2018-03-29T11:03:55.722Z,8.36
2018-03-29T11:04:55.875Z,8.32
2018-03-29T11:05:56.021Z,8.30
2018-03-29T11:06:56.173Z,8.40
2018-03-29T11:07:56.324Z,8.26
2018-03-29T11:08:56.475Z,8.17
2018-03-29T11:09:56.623Z,8.20
2018-03-29T11:10:56.774Z,8.15
2018-03-29T11:11:56.927Z,7.97
2018-03-29T11:12:57.078Z,7.99
2018-03-29T11:13:57.229Z,7.82
2018-03-29T11:14:57.384Z,7.77
2018-03-29T11:15:57.528Z,7.81
2018-03-29T11:16:57.700Z,7.62
2018-03-29T11:17:57.830Z,7.84
2018-03-29T11:18:57.977Z,7.58
2018-03-29T11:19:58.129Z,7.78
2018-03-29T11:20:58.295Z,7.60
2018-03-29T11:21:58.423Z,7.71
2018-03-29T11:22:58.571Z,7.55
2018-03-29T11:23:58.729Z,7.67
2018-03-29T11:24:58.888Z,7.62
2018-03-29T11:25:59.026Z,7.75
2018-03-29T11:26:59.223Z,7.89
2018-03-29T11:27:59.324Z,8.07
2018-03-29T11:28:59.473Z,8.21
2018-03-29T11:29:59.623Z,8.30
2018-03-29T11:30:59.773Z,8.18
2018-03-29T11:31:59.923Z,8.28
2018-03-29T11:33:00.074Z,8.37
2018-03-29T11:34:00.222Z,8.44
2018-03-29T11:35:00.372Z,8.72
2018-03-29T11:36:00.522Z,8.87
2018-03-29T11:37:00.673Z,9.05
2018-03-29T11:38:00.825Z,9.09
2018-03-29T11:39:00.975Z,9.21
2018-03-29T11:40:01.127Z,9.49
2018-03-29T11:41:01.278Z,9.63
2018-03-29T11:42:01.427Z,9.78
2018-03-29T11:43:01.579Z,9.78
2018-03-29T11:44:01.733Z,9.81
2018-03-29T11:45:01.884Z,9.83
2018-03-29T11:46:02.037Z,10.04
2018-03-29T11:47:02.227Z,10.04
2018-03-29T11:48:02.453Z,9.50
2018-03-29T11:49:02.472Z,9.52
2018-03-29T11:50:02.626Z,9.40
2018-03-29T11:51:02.780Z,9.24
2018-03-29T11:52:02.933Z,8.94
2018-03-29T11:53:03.068Z,8.83
2018-03-29T11:54:03.226Z,8.94
2018-03-29T11:55:03.393Z,8.78
2018-03-29T11:56:03.515Z,8.75
2018-03-29T11:57:03.673Z,8.83
2018-03-29T11:58:03.814Z,8.87
2018-03-29T11:59:03.965Z,8.68
2018-03-29T12:00:04.116Z,8.53
2018-03-29T12:01:04.275Z,8.37
2018-03-29T12:02:04.421Z,8.29
2018-03-29T12:03:04.601Z,8.25
2018-03-29T12:04:04.724Z,8.17
2018-03-29T12:05:04.948Z,8.02
2018-03-29T12:06:05.026Z,7.77
2018-03-29T12:07:05.174Z,7.82
2018-03-29T12:08:05.325Z,7.90
2018-03-29T12:09:05.494Z,8.12
2018-03-29T12:10:05.626Z,8.26
2018-03-29T12:11:05.778Z,8.50
2018-03-29T12:12:05.926Z,8.75
2018-03-29T12:13:06.074Z,9.13
2018-03-29T12:14:06.229Z,9.38
2018-03-29T12:15:06.415Z,9.89
2018-03-29T12:16:06.531Z,10.21
2018-03-29T12:17:06.752Z,10.52
2018-03-29T12:18:06.783Z,10.65
2018-03-29T12:19:06.938Z,10.34
2018-03-29T12:20:07.087Z,10.42
2018-03-29T12:21:07.236Z,10.39
2018-03-29T12:22:07.387Z,10.68
2018-03-29T12:23:07.548Z,10.94
2018-03-29T12:24:07.693Z,10.98
2018-03-29T12:25:07.841Z,11.25
2018-03-29T12:26:07.994Z,11.25
2018-03-29T12:27:08.151Z,11.47
2018-03-29T12:28:08.300Z,11.54
2018-03-29T12:29:08.450Z,11.50
2018-03-29T12:30:08.604Z,11.54
2018-03-29T12:31:08.760Z,11.53
2018-03-29T12:32:08.910Z,11.57
2018-03-29T12:33:09.137Z,11.36
2018-03-29T12:34:09.229Z,11.64
2018-03-29T12:35:09.352Z,11.27
2018-03-29T12:36:09.505Z,10.99
2018-03-29T12:37:09.653Z,11.21
2018-03-29T12:38:09.811Z,10.84
2018-03-29T12:39:09.985Z,11.10
2018-03-29T12:40:10.107Z,11.13
2018-03-29T12:41:10.259Z,11.25
2018-03-29T12:42:10.412Z,11.31
2018-03-29T12:43:10.564Z,11.43
2018-03-29T12:44:10.717Z,11.28
2018-03-29T12:45:10.870Z,11.46
2018-03-29T12:46:11.023Z,11.28
2018-03-29T12:47:11.175Z,10.94
2018-03-29T12:48:11.327Z,11.16
2018-03-29T12:49:11.479Z,11.20
2018-03-29T12:50:11.635Z,11.38
2018-03-29T12:51:11.788Z,11.61
2018-03-29T12:52:11.950Z,11.75
2018-03-29T12:53:12.094Z,11.62
2018-03-29T12:54:12.250Z,11.43
2018-03-29T12:55:12.400Z,11.03
2018-03-29T12:56:12.555Z,11.09
2018-03-29T12:57:12.711Z,11.28
2018-03-29T12:58:12.858Z,11.39
2018-03-29T12:59:13.013Z,11.35
2018-03-29T13:00:13.200Z,11.83
2018-03-29T13:01:13.321Z,11.75
2018-03-29T13:02:13.478Z,11.64
2018-03-29T13:03:13.630Z,11.11
2018-03-29T13:04:13.783Z,10.86
2018-03-29T13:05:13.938Z,10.74
2018-03-29T13:06:14.094Z,10.47
2018-03-29T13:07:14.252Z,10.43
2018-03-29T13:08:14.400Z,9.96
2018-03-29T13:09:14.554Z,9.94
2018-03-29T13:10:14.710Z,9.70
2018-03-29T13:11:14.865Z,9.61
2018-03-29T13:12:15.015Z,9.63
2018-03-29T13:13:15.169Z,9.66
2018-03-29T13:14:15.324Z,9.88
2018-03-29T13:15:15.474Z,9.78
2018-03-29T13:16:15.628Z,9.82
2018-03-29T13:17:15.780Z,9.64
2018-03-29T13:18:15.936Z,9.31